Time;durP1;ratioP1;P1;durP2;ratioP2;P2;SDS_P1;SDS_P2;PMS_P1;PMS_P2;Temp;Humidity;BMP_temperature;BMP_pressure;BME280_temperature;BME280_humidity;BME280_pressure;Samples;Min_cycle;Max_cycle;Signal;HPM_P1;HPM_P2
2021/11/22 00:01:32;;;;;;;6.82;1.23;;;6.90;99.90;;;;;;4974322;28;20067;-71
2021/11/22 00:03:58;;;;;;;2.53;0.85;;;6.90;99.90;;;;;;4975486;28;20046;-70
2021/11/22 00:06:23;;;;;;;7.40;2.40;;;6.80;99.90;;;;;;4987561;28;20036;-71
2021/11/22 00:08:49;;;;;;;2.97;0.93;;;6.80;99.90;;;;;;4982221;28;20027;-71
2021/11/22 00:11:15;;;;;;;5.50;0.95;;;6.80;99.90;;;;;;4990307;28;20026;-70
2021/11/22 00:13:41;;;;;;;2.70;0.77;;;6.80;99.90;;;;;;4975649;28;20040;-70
2021/11/22 00:16:06;;;;;;;6.18;1.20;;;6.80;99.90;;;;;;4974889;28;20027;-70
2021/11/22 00:18:32;;;;;;;3.13;0.52;;;6.80;99.90;;;;;;4985436;28;20022;-71
2021/11/22 00:20:58;;;;;;;3.60;0.40;;;6.80;99.90;;;;;;4984968;28;20025;-70
2021/11/22 00:23:23;;;;;;;3.30;0.88;;;6.70;99.90;;;;;;4985922;28;20571;-70
2021/11/22 00:25:49;;;;;;;6.57;0.82;;;6.70;99.90;;;;;;4987995;28;20026;-70
2021/11/22 00:28:14;;;;;;;5.97;1.42;;;6.70;99.90;;;;;;4980520;28;20375;-71
2021/11/22 00:30:40;;;;;;;7.38;1.35;;;6.70;99.90;;;;;;4980506;28;20034;-71
2021/11/22 00:33:08;;;;;;;20.15;2.33;;;6.60;99.90;;;;;;4985817;28;20244;-71
2021/11/22 00:35:34;;;;;;;3.28;0.95;;;6.60;99.90;;;;;;4978272;28;20044;-71
2021/11/22 00:38:04;;;;;;;4.40;1.45;;;6.60;99.90;;;;;;4974699;28;20015;-70
2021/11/22 00:40:30;;;;;;;4.78;1.02;;;6.60;99.90;;;;;;4985098;28;20105;-70
2021/11/22 00:42:56;;;;;;;4.70;1.33;;;6.50;99.90;;;;;;4975813;28;20034;-70
2021/11/22 00:45:22;;;;;;;8.93;1.75;;;6.50;99.90;;;;;;4980531;28;20034;-70
2021/11/22 00:47:48;;;;;;;6.00;0.75;;;6.50;99.90;;;;;;4975751;28;20030;-70
2021/11/22 00:50:13;;;;;;;8.90;0.90;;;6.50;99.90;;;;;;4975937;28;20353;-71
2021/11/22 00:52:40;;;;;;;4.25;0.55;;;6.50;99.90;;;;;;4977621;28;20118;-71
2021/11/22 00:55:06;;;;;;;3.47;1.17;;;6.50;99.90;;;;;;4978158;28;20023;-70
2021/11/22 00:57:32;;;;;;;5.72;0.70;;;6.50;99.90;;;;;;4985109;28;20019;-70
2021/11/22 00:59:59;;;;;;;7.60;0.70;;;6.40;99.90;;;;;;4980458;28;20019;-71
2021/11/22 01:02:25;;;;;;;8.15;1.33;;;6.40;99.90;;;;;;4986153;28;20022;-71
2021/11/22 01:04:50;;;;;;;7.00;1.80;;;6.40;99.90;;;;;;4974118;28;20046;-70
2021/11/22 01:07:16;;;;;;;3.88;1.17;;;6.40;99.90;;;;;;4983574;28;20543;-70
2021/11/22 01:09:42;;;;;;;10.13;1.42;;;6.40;99.90;;;;;;4984028;28;20022;-70
2021/11/22 01:12:08;;;;;;;2.42;0.68;;;6.40;99.90;;;;;;4982972;28;20034;-70
2021/11/22 01:14:36;;;;;;;3.75;0.65;;;6.40;99.90;;;;;;4980057;28;20019;-70
2021/11/22 01:17:02;;;;;;;5.28;0.75;;;6.30;99.90;;;;;;4970039;28;20473;-70
2021/11/22 01:19:28;;;;;;;10.27;1.17;;;6.30;99.90;;;;;;4985246;28;20162;-71
2021/11/22 01:21:53;;;;;;;8.93;0.90;;;6.30;99.90;;;;;;4974631;28;20109;-71
2021/11/22 01:24:19;;;;;;;4.72;0.60;;;6.30;99.90;;;;;;4977903;28;20471;-71
2021/11/22 01:26:44;;;;;;;7.18;2.47;;;6.20;99.90;;;;;;4984862;28;20027;-71
2021/11/22 01:29:10;;;;;;;5.32;0.75;;;6.20;99.90;;;;;;4977563;28;20419;-70
2021/11/22 01:31:36;;;;;;;7.28;0.93;;;6.20;99.90;;;;;;4980198;28;20029;-71
2021/11/22 01:34:01;;;;;;;3.50;0.70;;;6.20;99.90;;;;;;4976230;28;20420;-70
2021/11/22 01:36:27;;;;;;;5.75;1.00;;;6.20;99.90;;;;;;4979087;28;20386;-71
2021/11/22 01:38:53;;;;;;;4.25;0.85;;;6.20;99.90;;;;;;4976205;28;20031;-71
2021/11/22 01:41:18;;;;;;;5.95;1.15;;;6.20;99.90;;;;;;4978848;28;20038;-71
2021/11/22 01:43:44;;;;;;;6.68;1.40;;;6.10;99.90;;;;;;4982869;28;20027;-71
2021/11/22 01:46:19;;;;;;;2.85;0.88;;;6.20;99.90;;;;;;4973854;28;20534;-71
2021/11/22 01:48:44;;;;;;;6.22;0.80;;;6.10;99.90;;;;;;4981323;28;20026;-70
2021/11/22 01:51:10;;;;;;;3.13;0.90;;;6.10;99.90;;;;;;4978028;28;20030;-71
2021/11/22 01:53:36;;;;;;;3.80;0.80;;;6.10;99.90;;;;;;4975741;28;20080;-71
2021/11/22 01:56:01;;;;;;;8.40;1.42;;;6.10;99.90;;;;;;4988221;28;20054;-70
2021/11/22 01:58:27;;;;;;;4.30;0.77;;;6.10;99.90;;;;;;4983823;28;20054;-70
2021/11/22 02:00:54;;;;;;;3.20;1.00;;;6.00;99.90;;;;;;4977996;28;20106;-71
2021/11/22 02:03:21;;;;;;;12.98;1.10;;;6.00;99.90;;;;;;4978925;28;20030;-71
2021/11/22 02:05:51;;;;;;;7.22;0.90;;;6.00;99.90;;;;;;4983498;28;20494;-71
2021/11/22 02:08:17;;;;;;;;;;;6.00;99.90;;;;;;4979548;28;20540;-71
2021/11/22 02:10:42;;;;;;;7.57;1.65;;;6.00;99.90;;;;;;4984780;28;19906;-72
2021/11/22 02:13:08;;;;;;;9.88;1.10;;;5.90;99.90;;;;;;4980960;28;20118;-71
2021/11/22 02:15:33;;;;;;;7.53;1.85;;;5.90;99.90;;;;;;4984518;28;20015;-72
2021/11/22 02:17:59;;;;;;;5.78;0.95;;;5.90;99.90;;;;;;4982404;28;20495;-71
2021/11/22 02:20:27;;;;;;;7.78;1.38;;;5.90;99.90;;;;;;4981653;28;20022;-71
2021/11/22 02:22:57;;;;;;;5.63;1.17;;;5.80;99.90;;;;;;4977049;28;20177;-71
2021/11/22 02:25:24;;;;;;;5.68;1.33;;;5.80;99.90;;;;;;4992228;28;20030;-71
2021/11/22 02:27:51;;;;;;;4.22;0.80;;;5.80;99.90;;;;;;4982415;28;20435;-71
2021/11/22 02:30:20;;;;;;;3.00;0.85;;;5.80;99.90;;;;;;4975553;28;20031;-71
2021/11/22 02:32:46;;;;;;;8.15;1.25;;;5.80;99.90;;;;;;4980343;28;20058;-71
2021/11/22 02:35:18;;;;;;;4.22;0.95;;;5.80;99.90;;;;;;4972350;28;20090;-71
2021/11/22 02:37:45;;;;;;;10.70;1.23;;;5.80;99.90;;;;;;4984766;28;20385;-71
2021/11/22 02:40:11;;;;;;;4.72;0.60;;;5.80;99.90;;;;;;4980601;28;20022;-71
2021/11/22 02:42:44;;;;;;;6.65;1.20;;;5.70;99.90;;;;;;4982889;28;20042;-71
2021/11/22 02:45:13;;;;;;;5.25;1.17;;;5.70;99.90;;;;;;4983941;28;20100;-71
2021/11/22 02:47:41;;;;;;;9.05;0.95;;;5.70;99.90;;;;;;4967166;28;20078;-71
2021/11/22 02:50:09;;;;;;;7.38;0.85;;;5.70;99.90;;;;;;4981096;28;20118;-71
2021/11/22 02:52:35;;;;;;;6.15;1.00;;;5.60;99.90;;;;;;4973664;28;20026;-71
2021/11/22 02:55:01;;;;;;;8.18;0.73;;;5.60;99.90;;;;;;4987769;28;20050;-72
2021/11/22 02:57:27;;;;;;;5.55;0.73;;;5.60;99.90;;;;;;4972908;28;20120;-71
2021/11/22 02:59:54;;;;;;;5.78;0.70;;;5.60;99.90;;;;;;4980043;28;20022;-71
2021/11/22 03:02:19;;;;;;;11.95;1.48;;;5.60;99.90;;;;;;4981274;28;20492;-71
2021/11/22 03:04:45;;;;;;;4.40;1.42;;;5.60;99.90;;;;;;4983211;28;20085;-72
2021/11/22 03:07:12;;;;;;;2.88;1.00;;;5.60;99.90;;;;;;4987504;28;20500;-71
2021/11/22 03:09:39;;;;;;;8.10;0.90;;;5.50;99.90;;;;;;4987660;28;20408;-71
2021/11/22 03:12:08;;;;;;;3.47;0.40;;;5.50;99.90;;;;;;4985226;28;20030;-71
2021/11/22 03:14:34;;;;;;;7.57;1.23;;;5.50;99.90;;;;;;4981963;28;20021;-71
2021/11/22 03:17:00;;;;;;;5.43;0.70;;;5.50;99.90;;;;;;4988282;28;20022;-71
2021/11/22 03:19:26;;;;;;;3.80;0.88;;;5.50;99.90;;;;;;4976472;28;20126;-72
2021/11/22 03:21:53;;;;;;;5.28;0.60;;;5.50;99.90;;;;;;4984733;28;20109;-71
2021/11/22 03:24:19;;;;;;;11.73;1.73;;;5.40;99.90;;;;;;4986834;28;20041;-71
2021/11/22 03:26:45;;;;;;;4.45;0.65;;;5.40;99.90;;;;;;4987678;28;20514;-72
2021/11/22 03:29:11;;;;;;;8.35;0.80;;;5.40;99.90;;;;;;4987809;28;20022;-71
2021/11/22 03:31:37;;;;;;;7.75;2.15;;;5.40;99.90;;;;;;4980651;28;20029;-72
2021/11/22 03:34:06;;;;;;;4.75;0.50;;;5.40;99.90;;;;;;4989778;28;20018;-71
2021/11/22 03:36:32;;;;;;;2.20;0.63;;;5.40;99.90;;;;;;4984207;28;20023;-71
2021/11/22 03:39:00;;;;;;;3.42;0.75;;;5.40;99.90;;;;;;4989927;28;20057;-71
2021/11/22 03:41:27;;;;;;;4.22;0.90;;;5.30;99.90;;;;;;4980963;28;20061;-71
2021/11/22 03:44:10;;;;;;;3.13;0.75;;;5.40;99.90;;;;;;4979579;28;20029;-71
2021/11/22 03:46:36;;;;;;;4.70;0.55;;;5.30;99.90;;;;;;4986825;28;20018;-71
2021/11/22 03:49:02;;;;;;;5.47;1.00;;;5.30;99.90;;;;;;4977156;28;20027;-71
2021/11/22 03:51:28;;;;;;;7.97;1.27;;;5.30;99.90;;;;;;4987487;28;20361;-71
2021/11/22 03:53:53;;;;;;;4.78;0.77;;;5.30;99.90;;;;;;4974718;28;20024;-71
2021/11/22 03:56:19;;;;;;;4.63;0.80;;;5.30;99.90;;;;;;4991270;28;20015;-71
2021/11/22 03:58:45;;;;;;;6.07;1.92;;;5.30;99.90;;;;;;4978775;28;20035;-72
2021/11/22 04:01:11;;;;;;;6.18;0.95;;;5.30;99.90;;;;;;4983343;28;20015;-71
2021/11/22 04:03:37;;;;;;;3.65;0.57;;;5.30;99.90;;;;;;4977090;28;20097;-71
2021/11/22 04:06:03;;;;;;;3.60;0.73;;;5.30;99.90;;;;;;4977856;28;20028;-71
2021/11/22 04:08:28;;;;;;;3.92;0.60;;;5.30;99.90;;;;;;4990883;28;20030;-71
2021/11/22 04:10:54;;;;;;;9.25;1.45;;;5.20;99.90;;;;;;4979274;28;20393;-72
2021/11/22 04:13:20;;;;;;;2.50;1.00;;;5.20;99.90;;;;;;4984020;28;20033;-71
2021/11/22 04:15:45;;;;;;;11.10;0.82;;;5.20;99.90;;;;;;4981459;28;20030;-71
2021/11/22 04:18:13;;;;;;;3.30;0.55;;;5.20;99.90;;;;;;4977876;28;20027;-71
2021/11/22 04:20:38;;;;;;;8.38;0.80;;;5.20;99.90;;;;;;4985690;28;20065;-71
2021/11/22 04:23:06;;;;;;;6.63;0.90;;;5.20;99.90;;;;;;4976164;28;20027;-71
2021/11/22 04:25:32;;;;;;;4.70;0.70;;;5.20;99.90;;;;;;4989296;28;20522;-71
2021/11/22 04:27:58;;;;;;;8.10;1.52;;;5.20;99.90;;;;;;4984459;28;20110;-71
2021/11/22 04:30:23;;;;;;;10.93;1.63;;;5.10;99.90;;;;;;4975369;28;20109;-71
2021/11/22 04:32:49;;;;;;;3.45;1.10;;;5.10;99.90;;;;;;4980571;28;20493;-72
2021/11/22 04:35:15;;;;;;;5.15;0.50;;;5.10;99.90;;;;;;4984667;28;20440;-71
2021/11/22 04:37:41;;;;;;;3.85;0.45;;;5.10;99.90;;;;;;4987427;28;20496;-71
2021/11/22 04:40:11;;;;;;;5.15;0.70;;;5.00;99.90;;;;;;4979066;28;20023;-72
2021/11/22 04:42:36;;;;;;;6.10;0.60;;;5.10;99.90;;;;;;4988223;28;20064;-71
2021/11/22 04:45:03;;;;;;;6.35;0.73;;;5.00;99.90;;;;;;4967626;28;20030;-71
2021/11/22 04:47:34;;;;;;;4.75;1.05;;;5.00;99.90;;;;;;4983689;28;20523;-71
2021/11/22 04:50:00;;;;;;;1.52;0.60;;;5.00;99.90;;;;;;4979479;28;20035;-71
2021/11/22 04:52:25;;;;;;;9.52;1.40;;;5.00;99.90;;;;;;4984506;28;20049;-71
2021/11/22 04:54:51;;;;;;;3.85;0.80;;;5.00;99.90;;;;;;4985383;28;20054;-71
2021/11/22 04:57:17;;;;;;;3.75;0.70;;;5.00;99.90;;;;;;4985791;28;20049;-71
2021/11/22 04:59:43;;;;;;;3.10;0.68;;;5.00;99.90;;;;;;4988504;28;20029;-71
2021/11/22 05:02:09;;;;;;;5.45;0.65;;;4.90;99.90;;;;;;4983568;28;20018;-71
2021/11/22 05:04:36;;;;;;;9.38;0.65;;;4.90;99.90;;;;;;4966714;28;20022;-71
2021/11/22 05:07:03;;;;;;;6.18;1.35;;;4.90;99.90;;;;;;4978839;28;20054;-71
2021/11/22 05:09:28;;;;;;;6.82;1.08;;;4.90;99.90;;;;;;4985484;28;20022;-71
2021/11/22 05:11:54;;;;;;;7.65;0.90;;;4.90;99.90;;;;;;4984708;28;20033;-71
2021/11/22 05:14:20;;;;;;;6.35;0.80;;;4.90;99.90;;;;;;4974927;28;20041;-71
2021/11/22 05:16:46;;;;;;;5.45;2.40;;;4.90;99.90;;;;;;4981723;28;20030;-71
2021/11/22 05:19:12;;;;;;;4.80;0.80;;;4.90;99.90;;;;;;4982102;28;20045;-71
2021/11/22 05:21:38;;;;;;;4.40;0.95;;;4.90;99.90;;;;;;4983884;28;20113;-71
2021/11/22 05:24:05;;;;;;;4.13;1.80;;;4.90;99.90;;;;;;4977199;28;20599;-71
2021/11/22 05:26:31;;;;;;;7.72;0.85;;;4.80;99.90;;;;;;4985292;28;20468;-71
2021/11/22 05:29:01;;;;;;;3.05;0.80;;;4.80;99.90;;;;;;4997307;28;20038;-71
2021/11/22 05:31:27;;;;;;;10.23;1.83;;;4.80;99.90;;;;;;4985765;28;20033;-72
2021/11/22 05:33:53;;;;;;;3.20;0.55;;;4.80;99.90;;;;;;4986788;28;20035;-71
2021/11/22 05:36:19;;;;;;;5.45;1.00;;;4.80;99.90;;;;;;4981878;28;20379;-71
2021/11/22 05:38:45;;;;;;;7.38;1.10;;;4.70;99.90;;;;;;4982191;28;20022;-71
2021/11/22 05:41:11;;;;;;;9.70;0.98;;;4.70;99.90;;;;;;4976630;28;20051;-71
2021/11/22 05:43:37;;;;;;;4.88;0.95;;;4.70;99.90;;;;;;4981470;28;20034;-71
2021/11/22 05:46:06;;;;;;;3.20;1.08;;;4.70;99.90;;;;;;4977069;28;20034;-71
2021/11/22 05:48:32;;;;;;;4.43;0.80;;;4.70;99.90;;;;;;4982180;28;20033;-71
2021/11/22 05:51:01;;;;;;;5.68;0.90;;;4.70;99.90;;;;;;4984933;28;20384;-71
2021/11/22 05:53:33;;;;;;;6.30;0.98;;;4.60;99.90;;;;;;4977286;28;20484;-71
2021/11/22 05:55:59;;;;;;;7.32;1.10;;;4.60;99.90;;;;;;4983744;28;20033;-71
2021/11/22 05:58:25;;;;;;;4.13;0.90;;;4.60;99.90;;;;;;4975803;28;20015;-71
2021/11/22 06:00:50;;;;;;;8.05;1.10;;;4.60;99.90;;;;;;4978828;28;20385;-71
2021/11/22 06:03:16;;;;;;;5.95;1.75;;;4.60;99.90;;;;;;4976223;28;20022;-71
2021/11/22 06:05:42;;;;;;;8.68;1.30;;;4.60;99.90;;;;;;4981199;28;20428;-71
2021/11/22 06:08:08;;;;;;;4.82;0.75;;;4.60;99.90;;;;;;4989110;28;20026;-71
2021/11/22 06:10:35;;;;;;;5.97;1.17;;;4.60;99.90;;;;;;4980522;28;20433;-71
2021/11/22 06:13:00;;;;;;;6.68;0.88;;;4.50;99.90;;;;;;4972429;28;20027;-71
2021/11/22 06:15:26;;;;;;;11.57;1.25;;;4.50;99.90;;;;;;4982453;28;20034;-71
2021/11/22 06:17:52;;;;;;;4.13;1.00;;;4.50;99.90;;;;;;4968583;28;20023;-71
2021/11/22 06:20:18;;;;;;;12.38;1.40;;;4.50;99.90;;;;;;4988299;28;20026;-71
2021/11/22 06:22:43;;;;;;;10.93;1.20;;;4.50;99.90;;;;;;4977785;28;20420;-71
2021/11/22 06:25:09;;;;;;;6.72;1.10;;;4.50;99.90;;;;;;4989474;28;20586;-71
2021/11/22 06:27:35;;;;;;;4.55;1.05;;;4.50;99.90;;;;;;4984233;28;20114;-71
2021/11/22 06:30:02;;;;;;;6.35;1.15;;;4.50;99.90;;;;;;4984980;28;20058;-71
2021/11/22 06:32:29;;;;;;;4.03;1.75;;;4.50;99.90;;;;;;4987903;28;20077;-71
2021/11/22 06:34:56;;;;;;;5.57;1.10;;;4.50;99.90;;;;;;4975717;28;20051;-71
2021/11/22 06:37:25;;;;;;;5.55;1.30;;;4.50;99.90;;;;;;4992818;28;20044;-71
2021/11/22 06:39:51;;;;;;;5.57;1.33;;;4.50;99.90;;;;;;4981740;28;20030;-70
2021/11/22 06:42:17;;;;;;;4.57;1.10;;;4.50;99.90;;;;;;4992854;28;20026;-71
2021/11/22 06:44:43;;;;;;;7.60;1.10;;;4.50;99.90;;;;;;4985949;28;20513;-71
2021/11/22 06:47:09;;;;;;;3.22;0.82;;;4.50;99.90;;;;;;4980790;28;20022;-71
2021/11/22 06:49:34;;;;;;;26.00;2.13;;;4.40;99.90;;;;;;4981320;28;20030;-71
2021/11/22 06:52:00;;;;;;;5.40;0.82;;;4.50;99.90;;;;;;4973669;28;20023;-70
2021/11/22 06:54:25;;;;;;;3.40;1.08;;;4.50;99.90;;;;;;4979262;28;20018;-71
2021/11/22 06:56:51;;;;;;;12.85;2.42;;;4.40;99.90;;;;;;4981090;28;20066;-71
2021/11/22 06:59:17;;;;;;;3.95;1.15;;;4.40;99.90;;;;;;4974220;28;20076;-71
2021/11/22 07:01:43;;;;;;;8.55;0.82;;;4.40;99.90;;;;;;4973694;28;20030;-71
2021/11/22 07:04:09;;;;;;;8.52;1.90;;;4.40;99.90;;;;;;4976407;28;20502;-69
2021/11/22 07:06:35;;;;;;;9.23;1.83;;;4.40;99.90;;;;;;4973357;28;20031;-70
2021/11/22 07:09:01;;;;;;;9.52;0.90;;;4.40;99.90;;;;;;4974895;28;20380;-70
2021/11/22 07:11:26;;;;;;;5.65;1.50;;;4.40;99.90;;;;;;4972557;28;20030;-70
2021/11/22 07:13:52;;;;;;;7.32;1.77;;;4.40;99.90;;;;;;4969062;28;20031;-70
2021/11/22 07:16:18;;;;;;;5.75;1.38;;;4.40;99.90;;;;;;4979030;28;20101;-70
2021/11/22 07:18:43;;;;;;;6.05;1.65;;;4.40;99.90;;;;;;4973441;28;20034;-70
2021/11/22 07:21:09;;;;;;;7.40;1.60;;;4.40;99.90;;;;;;4977458;28;20106;-70
2021/11/22 07:23:36;;;;;;;9.10;2.03;;;4.40;99.90;;;;;;4973811;28;20085;-70
2021/11/22 07:26:02;;;;;;;2.75;0.95;;;4.40;99.90;;;;;;4973335;28;20081;-70
2021/11/22 07:28:28;;;;;;;5.40;1.65;;;4.40;99.90;;;;;;4971662;28;20043;-71
2021/11/22 07:30:53;;;;;;;8.60;1.60;;;4.40;99.90;;;;;;4966943;28;21039;-70
2021/11/22 07:33:20;;;;;;;4.82;1.38;;;4.40;99.90;;;;;;4973345;28;20395;-70
2021/11/22 07:35:45;;;;;;;13.30;2.78;;;4.40;99.90;;;;;;4967669;28;20118;-70
2021/11/22 07:38:11;;;;;;;6.95;2.03;;;4.40;99.90;;;;;;4971225;28;20097;-70
2021/11/22 07:40:37;;;;;;;10.00;1.83;;;4.50;99.90;;;;;;4972037;28;20024;-70
2021/11/22 07:43:04;;;;;;;6.97;1.73;;;4.50;99.90;;;;;;4973740;28;20440;-70
2021/11/22 07:45:30;;;;;;;7.85;1.85;;;4.50;99.90;;;;;;4970624;28;20030;-70
2021/11/22 07:47:56;;;;;;;6.15;1.70;;;4.50;99.90;;;;;;4973378;28;20027;-70
2021/11/22 07:50:26;;;;;;;11.15;2.50;;;4.50;99.90;;;;;;4968153;28;20396;-70
2021/11/22 07:52:52;;;;;;;5.57;2.22;;;4.60;99.90;;;;;;4971885;28;20034;-70
2021/11/22 07:55:21;;;;;;;7.85;1.52;;;4.60;99.90;;;;;;4965146;28;20018;-70
2021/11/22 07:57:46;;;;;;;6.82;1.80;;;4.60;99.90;;;;;;4966322;28;20073;-71
2021/11/22 08:00:13;;;;;;;5.07;1.25;;;4.70;99.90;;;;;;4966852;28;20050;-70
2021/11/22 08:02:38;;;;;;;6.93;2.05;;;4.70;99.90;;;;;;4966921;28;20023;-70
2021/11/22 08:05:06;;;;;;;12.25;2.60;;;4.80;99.90;;;;;;4976042;28;20025;-70
2021/11/22 08:07:32;;;;;;;8.23;1.85;;;4.90;99.90;;;;;;4973124;28;20015;-70
2021/11/22 08:10:04;;;;;;;7.07;1.58;;;4.90;99.90;;;;;;4973294;28;20026;-71
2021/11/22 08:12:32;;;;;;;9.25;1.55;;;4.90;99.90;;;;;;4967166;28;20110;-70
2021/11/22 08:15:00;;;;;;;6.68;1.95;;;4.90;99.90;;;;;;4975611;28;20357;-70
2021/11/22 08:17:28;;;;;;;5.93;2.45;;;5.00;99.90;;;;;;4967234;28;20019;-70
2021/11/22 08:19:54;;;;;;;11.48;2.65;;;5.00;99.90;;;;;;4970716;28;20501;-71
2021/11/22 08:22:22;;;;;;;3.38;1.95;;;5.00;99.90;;;;;;4970937;28;20321;-70
2021/11/22 08:24:52;;;;;;;6.45;2.05;;;5.10;99.90;;;;;;4978930;28;20139;-70
2021/11/22 08:27:19;;;;;;;10.27;2.85;;;5.20;99.90;;;;;;4976443;28;20023;-70
2021/11/22 08:29:46;;;;;;;6.07;2.22;;;5.20;99.90;;;;;;4973215;28;20019;-70
2021/11/22 08:32:12;;;;;;;5.25;1.60;;;5.30;99.90;;;;;;4978438;28;20027;-70
2021/11/22 08:34:37;;;;;;;5.97;2.80;;;5.40;99.90;;;;;;4972529;28;20077;-70
2021/11/22 08:37:03;;;;;;;8.82;2.00;;;5.50;99.90;;;;;;4970541;28;20527;-70
2021/11/22 08:39:29;;;;;;;4.68;2.00;;;5.60;99.90;;;;;;4970824;28;20050;-70
2021/11/22 08:41:54;;;;;;;5.03;2.08;;;5.70;99.90;;;;;;4970965;28;20035;-70
2021/11/22 08:44:20;;;;;;;8.25;2.30;;;5.90;99.90;;;;;;4966866;28;20022;-70
2021/11/22 08:46:47;;;;;;;5.28;1.35;;;6.10;99.90;;;;;;4969046;28;20041;-70
2021/11/22 08:49:14;;;;;;;8.05;2.35;;;6.30;99.90;;;;;;4968653;28;20127;-70
2021/11/22 08:51:41;;;;;;;5.82;2.08;;;6.60;99.90;;;;;;4969752;28;20366;-70
2021/11/22 08:54:07;;;;;;;6.90;1.42;;;7.10;99.90;;;;;;4970967;28;20019;-71
2021/11/22 08:56:33;;;;;;;3.85;1.95;;;7.70;99.90;;;;;;4968993;28;20019;-71
2021/11/22 08:58:59;;;;;;;8.43;2.13;;;8.40;99.90;;;;;;4968930;28;20014;-71
2021/11/22 09:01:24;;;;;;;6.03;1.23;;;9.10;99.90;;;;;;4968171;28;20019;-71
2021/11/22 09:03:51;;;;;;;5.20;1.05;;;9.70;99.90;;;;;;4970926;28;20058;-71
2021/11/22 09:06:19;;;;;;;7.53;1.60;;;10.30;99.90;;;;;;4970362;28;20195;-71
2021/11/22 09:08:45;;;;;;;7.25;1.80;;;10.70;99.90;;;;;;4967662;28;20034;-71
2021/11/22 09:11:11;;;;;;;6.93;1.88;;;11.20;99.90;;;;;;4970796;28;20123;-71
2021/11/22 09:13:38;;;;;;;9.05;2.20;;;11.50;99.90;;;;;;4969175;28;20106;-71
2021/11/22 09:16:04;;;;;;;4.93;1.45;;;11.70;99.90;;;;;;4970387;28;20085;-71
2021/11/22 09:18:29;;;;;;;9.13;1.70;;;11.90;99.90;;;;;;4968521;28;20492;-70
2021/11/22 09:20:55;;;;;;;7.57;2.13;;;12.00;99.90;;;;;;4970436;28;20027;-70
2021/11/22 09:23:21;;;;;;;8.05;2.40;;;12.10;99.90;;;;;;4968294;28;20031;-70
2021/11/22 09:25:47;;;;;;;5.75;2.17;;;12.30;99.90;;;;;;4969252;28;20266;-70
2021/11/22 09:28:12;;;;;;;4.43;1.60;;;12.40;99.90;;;;;;4971031;28;20023;-71
2021/11/22 09:30:38;;;;;;;5.22;1.60;;;12.40;99.90;;;;;;4965041;28;20452;-70
2021/11/22 09:33:04;;;;;;;4.35;1.60;;;12.30;99.90;;;;;;4970203;28;20035;-70
2021/11/22 09:35:30;;;;;;;3.95;1.48;;;12.30;99.90;;;;;;4970466;28;20090;-71
2021/11/22 09:37:56;;;;;;;5.85;1.80;;;12.30;99.90;;;;;;4972067;28;20543;-70
2021/11/22 09:40:22;;;;;;;6.03;1.58;;;12.20;99.80;;;;;;4963824;28;20106;-70
2021/11/22 09:42:48;;;;;;;4.20;1.25;;;12.10;99.70;;;;;;4966460;28;20038;-71
2021/11/22 09:45:16;;;;;;;6.40;1.40;;;12.00;99.60;;;;;;4970996;28;20062;-70
2021/11/22 09:47:41;;;;;;;8.40;1.60;;;12.00;99.50;;;;;;4966844;28;20069;-70
2021/11/22 09:50:08;;;;;;;5.65;1.75;;;11.90;99.40;;;;;;4970768;28;20062;-71
2021/11/22 09:52:35;;;;;;;5.63;1.33;;;12.00;99.50;;;;;;4970782;28;20038;-71
2021/11/22 09:55:00;;;;;;;3.38;1.13;;;12.10;99.30;;;;;;4965060;28;20057;-71
2021/11/22 09:57:26;;;;;;;4.75;1.30;;;12.20;99.20;;;;;;4967939;28;20085;-70
2021/11/22 09:59:52;;;;;;;16.58;2.20;;;12.40;99.10;;;;;;4969240;28;20105;-71
2021/11/22 10:02:17;;;;;;;5.97;1.20;;;12.70;98.90;;;;;;4971708;28;20437;-70
2021/11/22 10:04:43;;;;;;;5.28;1.50;;;12.80;98.30;;;;;;4972624;28;20520;-70
2021/11/22 10:07:10;;;;;;;6.57;1.60;;;12.80;98.10;;;;;;4973087;28;20019;-70
2021/11/22 10:09:41;;;;;;;3.88;0.68;;;12.70;97.60;;;;;;4972507;28;20014;-70
2021/11/22 10:12:16;;;;;;;5.43;1.17;;;12.50;97.00;;;;;;4967321;28;20162;-70
2021/11/22 10:14:50;;;;;;;7.13;1.17;;;12.20;97.00;;;;;;4974249;28;20034;-70
2021/11/22 10:17:23;;;;;;;4.60;1.08;;;11.90;97.60;;;;;;4970241;28;20473;-70
2021/11/22 10:20:09;;;;;;;4.20;0.60;;;11.90;98.10;;;;;;4971410;28;20122;-70
2021/11/22 10:23:07;;;;;;;3.67;0.52;;;12.20;98.00;;;;;;4968545;28;20362;-70
2021/11/22 10:25:35;;;;;;;5.10;0.60;;;12.50;97.80;;;;;;4966545;28;20039;-70
2021/11/22 10:28:14;;;;;;;9.40;1.95;;;12.70;97.20;;;;;;4973981;28;20062;-70
2021/11/22 10:30:43;;;;;;;4.60;0.50;;;12.90;96.90;;;;;;4962085;28;20035;-70
2021/11/22 10:33:12;;;;;;;4.43;0.68;;;13.20;96.90;;;;;;4972776;28;20294;-70
2021/11/22 10:35:38;;;;;;;2.75;0.50;;;13.60;96.40;;;;;;4967527;28;20046;-70
2021/11/22 10:38:16;;;;;;;3.85;0.70;;;13.80;95.90;;;;;;4971638;28;20023;-70
2021/11/22 10:40:45;;;;;;;6.22;1.35;;;13.90;95.70;;;;;;4973864;28;20117;-71
2021/11/22 10:43:11;;;;;;;4.47;0.50;;;14.20;95.50;;;;;;4973373;28;20511;-71
2021/11/22 10:45:42;;;;;;;3.50;0.80;;;14.40;95.10;;;;;;4973741;28;20031;-70
2021/11/22 10:48:27;;;;;;;5.97;0.70;;;14.80;93.90;;;;;;4972523;28;20037;-70
2021/11/22 10:51:14;;;;;;;4.22;0.45;;;14.90;93.30;;;;;;4971423;28;20571;-69
2021/11/22 10:53:43;;;;;;;3.35;0.88;;;15.10;92.60;;;;;;4972535;28;20454;-70
2021/11/22 10:56:34;;;;;;;4.03;0.90;;;15.30;92.40;;;;;;4971069;28;20031;-69
2021/11/22 10:59:07;;;;;;;1.77;0.30;;;15.40;90.80;;;;;;4972268;28;20384;-69
2021/11/22 11:01:39;;;;;;;1.10;0.60;;;15.40;90.50;;;;;;4970264;28;20041;-69
2021/11/22 11:04:17;;;;;;;4.70;0.45;;;15.40;89.20;;;;;;4971770;28;20102;-70
2021/11/22 11:07:05;;;;;;;2.88;0.50;;;15.30;90.10;;;;;;4969895;28;20057;-70
2021/11/22 11:09:49;;;;;;;6.65;0.50;;;15.40;90.10;;;;;;4972896;28;20054;-69
2021/11/22 11:12:17;;;;;;;4.47;0.50;;;15.60;89.30;;;;;;4971744;28;20444;-70
2021/11/22 11:14:53;;;;;;;3.90;0.50;;;15.60;88.80;;;;;;4972301;28;20051;-69
2021/11/22 11:17:22;;;;;;;3.08;0.30;;;15.70;88.50;;;;;;4984316;28;20034;-70
2021/11/22 11:19:50;;;;;;;4.45;0.57;;;15.90;88.00;;;;;;4971070;28;20489;-71
2021/11/22 11:22:16;;;;;;;1.58;0.32;;;15.90;87.10;;;;;;4969719;28;20019;-70
2021/11/22 11:24:42;;;;;;;2.40;0.30;;;15.90;85.60;;;;;;4971324;28;20030;-69
2021/11/22 11:27:08;;;;;;;2.75;0.60;;;16.00;85.70;;;;;;4971572;28;20033;-69
2021/11/22 11:29:35;;;;;;;3.05;0.52;;;16.00;86.20;;;;;;4969118;28;20031;-69
2021/11/22 11:32:01;;;;;;;3.05;0.30;;;16.10;85.50;;;;;;4969928;28;20026;-69
2021/11/22 11:34:32;;;;;;;2.70;0.90;;;16.10;85.70;;;;;;4970687;28;20110;-69
2021/11/22 11:37:18;;;;;;;3.47;0.80;;;16.30;86.10;;;;;;4971263;28;20372;-69
2021/11/22 11:40:24;;;;;;;4.70;0.85;;;16.60;84.60;;;;;;4971141;28;20050;-69
2021/11/22 11:43:11;;;;;;;4.45;0.57;;;16.70;84.90;;;;;;4970346;28;20038;-69
2021/11/22 11:45:56;;;;;;;3.78;0.55;;;16.60;84.10;;;;;;4970938;28;20062;-69
2021/11/22 11:48:50;;;;;;;3.47;0.80;;;16.60;83.50;;;;;;4964605;28;20073;-70
2021/11/22 11:51:20;;;;;;;3.65;0.35;;;16.70;82.20;;;;;;4967099;28;20034;-69
2021/11/22 11:54:01;;;;;;;;;;;16.70;83.10;;;;;;4969844;28;20365;-69
2021/11/22 11:56:31;;;;;;;3.88;0.20;;;16.60;82.20;;;;;;4970455;28;20356;-69
2021/11/22 11:59:42;;;;;;;3.65;0.50;;;16.50;82.60;;;;;;4971000;28;20015;-69
2021/11/22 12:02:23;;;;;;;4.90;0.85;;;16.70;82.10;;;;;;4969104;28;20117;-69
2021/11/22 12:04:49;;;;;;;3.25;0.68;;;16.60;82.50;;;;;;4970953;28;20023;-69
2021/11/22 12:07:28;;;;;;;6.20;0.73;;;16.70;82.10;;;;;;4972365;28;20011;-70
2021/11/22 12:10:14;;;;;;;4.60;0.80;;;16.80;80.30;;;;;;4972286;28;20033;-70
2021/11/22 12:12:57;;;;;;;5.40;0.40;;;16.70;79.90;;;;;;4971123;28;20026;-69
2021/11/22 12:15:24;;;;;;;4.57;0.98;;;16.60;80.70;;;;;;4969358;28;20403;-69
2021/11/22 12:18:00;;;;;;;4.80;0.40;;;16.60;81.10;;;;;;4969031;28;20014;-69
2021/11/22 12:20:25;;;;;;;2.08;0.50;;;16.60;79.90;;;;;;4969107;28;20081;-70
2021/11/22 12:22:53;;;;;;;4.70;0.45;;;16.50;80.20;;;;;;4969833;28;20408;-70
2021/11/22 12:25:43;;;;;;;5.10;0.73;;;16.60;80.90;;;;;;4970710;28;20019;-70
2021/11/22 12:28:23;;;;;;;2.22;0.35;;;16.60;80.30;;;;;;4970336;28;20027;-69
2021/11/22 12:31:01;;;;;;;;;;;16.50;81.20;;;;;;4971690;28;20042;-70
2021/11/22 12:33:26;;;;;;;3.60;0.50;;;16.30;81.70;;;;;;4970600;28;19914;-69
2021/11/22 12:35:59;;;;;;;3.50;0.55;;;16.30;81.10;;;;;;4971229;28;20025;-70
2021/11/22 12:38:30;;;;;;;4.13;0.50;;;16.20;80.00;;;;;;4971291;28;20022;-70
2021/11/22 12:41:02;;;;;;;5.05;0.40;;;15.80;80.50;;;;;;4968865;28;20023;-71
2021/11/22 12:43:43;;;;;;;3.47;0.95;;;15.60;81.80;;;;;;4969708;28;20400;-70
2021/11/22 12:46:31;;;;;;;4.25;0.50;;;15.50;82.30;;;;;;4970119;28;20090;-71
2021/11/22 12:48:56;;;;;;;2.88;0.50;;;15.50;82.10;;;;;;4965118;28;20042;-71
2021/11/22 12:51:24;;;;;;;3.60;0.63;;;15.40;82.00;;;;;;4969980;28;20035;-71
2021/11/22 12:54:05;;;;;;;3.33;0.50;;;15.30;82.40;;;;;;4964665;28;20038;-71
2021/11/22 12:56:34;;;;;;;5.30;0.60;;;15.20;83.20;;;;;;4966823;28;20064;-71
2021/11/22 12:59:33;;;;;;;1.67;0.35;;;15.10;83.50;;;;;;4969163;28;20015;-74